Time;durP1;ratioP1;P1;durP2;ratioP2;P2;SDS_P1;SDS_P2;PMS_P1;PMS_P2;Temp;Humidity;BMP_temperature;BMP_pressure;BME280_temperature;BME280_humidity;BME280_pressure;Samples;Min_cycle;Max_cycle;Signal;HPM_P1;HPM_P2
2024/03/06 00:01:19;;;;;;;;;;;;;;;7.70;75.73;99462.41;5114678;28;19923;-66
2024/03/06 00:03:48;;;;;;;;;;;;;;;7.71;76.77;99468.34;5116010;28;20457;-69
2024/03/06 00:06:17;;;;;;;;;;;;;;;7.64;76.18;99472.53;5117603;28;20026;-66
2024/03/06 00:08:47;;;;;;;;;;;;;;;7.61;76.70;99475.06;5117478;28;19927;-66
2024/03/06 00:11:15;;;;;;;;;;;;;;;7.54;76.83;99464.81;5118807;28;20374;-67
2024/03/06 00:13:44;;;;;;;;;;;;;;;7.43;76.43;99468.16;5100158;28;19945;-66
2024/03/06 00:16:13;;;;;;;;;;;;;;;7.43;77.25;99480.00;5119327;28;20452;-66
2024/03/06 00:18:45;;;;;;;;;;;;;;;7.40;77.50;99469.81;5118471;28;20427;-66
2024/03/06 00:21:15;;;;;;;;;;;;;;;7.40;77.44;99468.13;5117449;28;19923;-69
2024/03/06 00:23:45;;;;;;;;;;;;;;;7.44;77.75;99463.91;5118463;28;19924;-67
2024/03/06 00:26:16;;;;;;;;;;;;;;;7.46;77.95;99472.41;5116798;28;20316;-67
2024/03/06 00:28:44;;;;;;;;;;;;;;;7.49;78.31;99472.41;5118224;28;19924;-67
2024/03/06 00:31:13;;;;;;;;;;;;;;;7.48;78.59;99474.94;5118961;28;19931;-69
2024/03/06 00:33:41;;;;;;;;;;;;;;;7.49;77.46;99477.50;5104629;28;20034;-66
2024/03/06 00:36:10;;;;;;;;;;;;;;;7.47;77.76;99479.16;5098468;28;19924;-66
2024/03/06 00:38:38;;;;;;;;;;;;;;;7.41;77.69;99484.22;5097947;28;19993;-67
2024/03/06 00:41:07;;;;;;;;;;;;;;;7.33;77.85;99480.75;5097891;28;19939;-66
2024/03/06 00:43:37;;;;;;;;;;;;;;;7.26;78.36;99482.38;5098001;28;19924;-66
2024/03/06 00:46:05;;;;;;;;;;;;;;;7.25;78.05;99482.34;5097586;28;19946;-66
2024/03/06 00:48:34;;;;;;;;;;;;;;;7.24;78.26;99486.59;5097577;28;19924;-66
2024/03/06 00:51:06;;;;;;;;;;;;;;;7.23;78.40;99489.09;5096581;28;20034;-66
2024/03/06 00:53:36;;;;;;;;;;;;;;;7.19;78.00;99484.84;5097136;28;20300;-66
2024/03/06 00:56:04;;;;;;;;;;;;;;;7.15;78.34;99488.19;5096576;28;19931;-66
2024/03/06 00:58:33;;;;;;;;;;;;;;;7.07;78.33;99497.41;5097790;28;19924;-67
2024/03/06 01:01:03;;;;;;;;;;;;;;;7.02;78.07;99488.91;5097492;28;20023;-66
2024/03/06 01:03:32;;;;;;;;;;;;;;;6.97;78.45;99500.69;5097699;28;19924;-66
2024/03/06 01:06:01;;;;;;;;;;;;;;;6.97;78.33;99500.69;5097503;28;19931;-67
2024/03/06 01:08:31;;;;;;;;;;;;;;;6.97;78.78;99503.22;5097362;28;19928;-66
2024/03/06 01:11:00;;;;;;;;;;;;;;;6.92;78.63;99502.31;5096129;28;19947;-66
2024/03/06 01:13:29;;;;;;;;;;;;;;;6.88;78.35;99495.50;5096825;28;20386;-66
2024/03/06 01:15:57;;;;;;;;;;;;;;;6.88;78.85;99495.50;5095499;28;19931;-67
2024/03/06 01:18:27;;;;;;;;;;;;;;;6.84;79.07;99498.88;5095803;28;19924;-66
2024/03/06 01:20:56;;;;;;;;;;;;;;;6.84;78.99;99503.94;5097082;28;19924;-67
2024/03/06 01:23:24;;;;;;;;;;;;;;;6.84;78.89;99498.88;5097036;28;20374;-66
2024/03/06 01:25:53;;;;;;;;;;;;;;;6.89;79.57;99502.28;5096524;28;20396;-67
2024/03/06 01:28:21;;;;;;;;;;;;;;;7.01;79.70;99503.25;5096960;28;19924;-66
2024/03/06 01:30:49;;;;;;;;;;;;;;;7.07;79.47;99492.34;5078660;28;19924;-67
2024/03/06 01:33:18;;;;;;;;;;;;;;;7.11;79.74;99494.91;5096456;28;19924;-67
2024/03/06 01:35:48;;;;;;;;;;;;;;;7.15;80.00;99493.28;5096846;28;20024;-67
2024/03/06 01:38:17;;;;;;;;;;;;;;;7.17;79.74;99494.13;5095369;28;19924;-66
2024/03/06 01:40:45;;;;;;;;;;;;;;;7.16;79.73;99492.41;5095562;28;19966;-67
2024/03/06 01:43:21;;;;;;;;;;;;;;;7.15;79.46;99496.63;5096854;28;19946;-67
2024/03/06 01:45:50;;;;;;;;;;;;;;;7.16;79.35;99500.03;5095246;28;19924;-66
2024/03/06 01:48:20;;;;;;;;;;;;;;;7.20;79.39;99495.00;5096898;28;20306;-67
2024/03/06 01:50:50;;;;;;;;;;;;;;;7.22;80.05;99495.03;5095389;28;20133;-66
2024/03/06 01:53:19;;;;;;;;;;;;;;;7.20;79.55;99489.06;5095284;28;19924;-67
2024/03/06 01:55:49;;;;;;;;;;;;;;;7.18;79.85;99493.28;5096385;28;20027;-67
2024/03/06 01:58:17;;;;;;;;;;;;;;;7.16;80.02;99497.50;5096375;28;20011;-66
2024/03/06 02:00:46;;;;;;;;;;;;;;;7.14;79.93;99489.03;5096219;28;19924;-66
2024/03/06 02:03:14;;;;;;;;;;;;;;;7.09;79.88;99495.75;5094740;28;19930;-67
2024/03/06 02:05:43;;;;;;;;;;;;;;;7.10;79.46;99492.38;5096067;28;20412;-67
2024/03/06 02:08:13;;;;;;;;;;;;;;;7.09;79.81;99501.66;5095807;28;19924;-67
2024/03/06 02:10:43;;;;;;;;;;;;;;;7.12;79.32;99495.78;5095805;28;19930;-66
2024/03/06 02:13:12;;;;;;;;;;;;;;;7.08;79.23;99489.81;5078265;28;19924;-67
2024/03/06 02:15:41;;;;;;;;;;;;;;;7.08;79.21;99488.97;5094415;28;19932;-67
2024/03/06 02:18:09;;;;;;;;;;;;;;;7.04;78.76;99492.31;5094568;28;19928;-66
2024/03/06 02:20:40;;;;;;;;;;;;;;;6.99;78.88;99488.84;5095919;28;19924;-66
2024/03/06 02:23:09;;;;;;;;;;;;;;;6.98;79.18;99493.06;5095987;28;19994;-67
2024/03/06 02:25:38;;;;;;;;;;;;;;;6.99;78.74;99486.31;5095219;28;19977;-67
2024/03/06 02:28:06;;;;;;;;;;;;;;;6.96;79.36;99496.47;5094479;28;19924;-66
2024/03/06 02:30:36;;;;;;;;;;;;;;;6.91;79.72;99495.56;5095759;28;19924;-67
2024/03/06 02:33:07;;;;;;;;;;;;;;;6.91;79.18;99490.47;5094924;28;19931;-67
2024/03/06 02:35:36;;;;;;;;;;;;;;;6.89;78.97;99492.13;5095404;28;20383;-67
2024/03/06 02:38:06;;;;;;;;;;;;;;;6.86;78.91;99492.13;5095549;28;20413;-67
2024/03/06 02:40:35;;;;;;;;;;;;;;;6.85;79.79;99487.88;5094352;28;19925;-66
2024/03/06 02:43:04;;;;;;;;;;;;;;;6.84;79.14;99488.72;5095834;28;19924;-67
2024/03/06 02:45:33;;;;;;;;;;;;;;;6.83;79.04;99487.00;5077355;28;19993;-67
2024/03/06 02:48:01;;;;;;;;;;;;;;;6.85;79.40;99485.31;5095556;28;19923;-67
2024/03/06 02:50:30;;;;;;;;;;;;;;;6.87;78.95;99489.59;5094712;28;19924;-66
2024/03/06 02:52:58;;;;;;;;;;;;;;;6.89;79.17;99494.66;5095193;28;20332;-67
2024/03/06 02:55:28;;;;;;;;;;;;;;;6.89;79.15;99492.13;5095048;28;20017;-66
2024/03/06 02:57:57;;;;;;;;;;;;;;;6.88;79.40;99492.97;5094875;28;19925;-67
2024/03/06 03:00:25;;;;;;;;;;;;;;;6.86;79.15;99492.97;5095227;28;19924;-66
2024/03/06 03:02:54;;;;;;;;;;;;;;;6.80;78.65;99494.56;5093959;28;19924;-66
2024/03/06 03:05:23;;;;;;;;;;;;;;;6.77;79.05;99499.63;5094841;28;19970;-69
2024/03/06 03:07:52;;;;;;;;;;;;;;;6.74;78.58;99498.75;5094944;28;19928;-68
2024/03/06 03:10:21;;;;;;;;;;;;;;;6.71;79.21;99503.78;5095038;28;19941;-68
2024/03/06 03:12:51;;;;;;;;;;;;;;;6.68;79.09;99508.81;5094941;28;19924;-68
2024/03/06 03:15:20;;;;;;;;;;;;;;;6.64;79.03;99502.03;5094781;28;20370;-66
2024/03/06 03:17:49;;;;;;;;;;;;;;;6.60;78.90;99507.00;5094529;28;19924;-67
2024/03/06 03:20:17;;;;;;;;;;;;;;;6.63;79.03;99500.31;5094835;28;19924;-67
2024/03/06 03:22:46;;;;;;;;;;;;;;;6.62;79.56;99501.13;5094478;28;19924;-67
2024/03/06 03:25:14;;;;;;;;;;;;;;;6.63;79.55;99502.84;5093272;28;19924;-66
2024/03/06 03:27:44;;;;;;;;;;;;;;;6.65;79.63;99505.38;5094608;28;19924;-67
2024/03/06 03:30:15;;;;;;;;;;;;;;;6.64;79.02;99507.09;5094940;28;20465;-68
2024/03/06 03:32:45;;;;;;;;;;;;;;;6.71;79.62;99510.53;5095016;28;20382;-69
2024/03/06 03:35:14;;;;;;;;;;;;;;;6.73;79.08;99507.19;5094515;28;19924;-69
2024/03/06 03:37:44;;;;;;;;;;;;;;;6.70;78.92;99511.38;5094103;28;19959;-69
2024/03/06 03:40:13;;;;;;;;;;;;;;;6.66;78.69;99505.44;5094573;28;20026;-69
2024/03/06 03:42:42;;;;;;;;;;;;;;;6.66;78.94;99507.97;5093595;28;19924;-69
2024/03/06 03:45:10;;;;;;;;;;;;;;;6.62;79.09;99506.19;5094290;28;20290;-69
2024/03/06 03:47:42;;;;;;;;;;;;;;;6.66;79.07;99515.56;5094465;28;20018;-69
2024/03/06 03:50:11;;;;;;;;;;;;;;;6.65;78.93;99513.84;5094720;28;19928;-69
2024/03/06 03:52:41;;;;;;;;;;;;;;;6.64;78.72;99514.69;5094026;28;19973;-68
2024/03/06 03:55:11;;;;;;;;;;;;;;;6.61;78.56;99516.34;5094304;28;19971;-69
2024/03/06 03:57:39;;;;;;;;;;;;;;;6.58;78.72;99524.75;5094017;28;20298;-68
2024/03/06 04:00:10;;;;;;;;;;;;;;;6.57;79.19;99517.13;5093097;28;19990;-69
2024/03/06 04:02:42;;;;;;;;;;;;;;;6.52;79.01;99532.28;5094662;28;19924;-69
2024/03/06 04:05:10;;;;;;;;;;;;;;;6.49;79.76;99527.19;5094407;28;20026;-68
2024/03/06 04:07:39;;;;;;;;;;;;;;;6.41;79.27;99530.44;5094256;28;19927;-67
2024/03/06 04:10:10;;;;;;;;;;;;;;;6.32;79.25;99523.56;5094398;28;19924;-67
2024/03/06 04:12:40;;;;;;;;;;;;;;;6.26;79.99;99528.56;5076386;28;19924;-69
2024/03/06 04:15:09;;;;;;;;;;;;;;;6.22;79.81;99531.88;5094057;28;20443;-68
2024/03/06 04:17:38;;;;;;;;;;;;;;;6.16;80.24;99531.78;5094193;28;19954;-69
2024/03/06 04:20:11;;;;;;;;;;;;;;;6.08;80.30;99538.41;5092906;28;20030;-68
2024/03/06 04:22:41;;;;;;;;;;;;;;;6.02;80.77;99539.16;5094187;28;19982;-69
2024/03/06 04:25:09;;;;;;;;;;;;;;;6.03;80.71;99540.03;5093782;28;19924;-68
2024/03/06 04:27:38;;;;;;;;;;;;;;;6.00;80.13;99534.91;5094187;28;19924;-69
2024/03/06 04:30:07;;;;;;;;;;;;;;;6.06;80.57;99540.09;5093710;28;20369;-68
2024/03/06 04:32:36;;;;;;;;;;;;;;;6.04;80.45;99541.75;5094222;28;19969;-69
2024/03/06 04:35:05;;;;;;;;;;;;;;;5.96;80.68;99538.22;5094229;28;19930;-69
2024/03/06 04:37:35;;;;;;;;;;;;;;;5.96;80.79;99543.31;5094015;28;19974;-68
2024/03/06 04:40:07;;;;;;;;;;;;;;;5.95;80.55;99542.44;5093902;28;20382;-68
2024/03/06 04:42:37;;;;;;;;;;;;;;;5.96;80.60;99539.09;5075509;28;19928;-69
2024/03/06 04:45:10;;;;;;;;;;;;;;;5.98;80.43;99547.56;5092535;28;20066;-69
2024/03/06 04:47:38;;;;;;;;;;;;;;;5.93;80.03;99545.78;5093997;28;19924;-69
2024/03/06 04:50:09;;;;;;;;;;;;;;;5.82;79.73;99552.34;5096183;28;19931;-69
2024/03/06 04:52:39;;;;;;;;;;;;;;;5.74;80.22;99553.88;5096491;28;20357;-69
2024/03/06 04:55:09;;;;;;;;;;;;;;;5.71;80.24;99552.16;5097537;28;19924;-69
2024/03/06 04:57:38;;;;;;;;;;;;;;;5.68;80.48;99556.31;5098212;28;20416;-68
2024/03/06 05:00:08;;;;;;;;;;;;;;;5.62;80.13;99557.06;5097237;28;19924;-69
2024/03/06 05:02:37;;;;;;;;;;;;;;;5.60;80.20;99557.88;5097637;28;20010;-69
2024/03/06 05:05:24;;;;;;;;;;;;;;;5.53;80.31;99556.91;5097107;28;20457;-69
2024/03/06 05:08:12;;;;;;;;;;;;;;;5.51;80.23;99570.38;5096125;28;19973;-69
2024/03/06 05:10:57;;;;;;;;;;;;;;;5.47;80.70;99566.91;5097371;28;19924;-69
2024/03/06 05:13:43;;;;;;;;;;;;;;;5.51;80.68;99568.69;5097274;28;20015;-68
2024/03/06 05:16:28;;;;;;;;;;;;;;;5.54;80.69;99567.91;5097586;28;19931;-68
2024/03/06 05:19:14;;;;;;;;;;;;;;;5.43;80.24;99567.69;5096841;28;20012;-69
2024/03/06 05:22:00;;;;;;;;;;;;;;;5.42;80.56;99574.44;5097127;28;19931;-69
2024/03/06 05:24:48;;;;;;;;;;;;;;;5.42;80.91;99566.84;5097085;28;19928;-68
2024/03/06 05:27:33;;;;;;;;;;;;;;;5.39;80.41;99574.41;5097022;28;20401;-69
2024/03/06 05:30:19;;;;;;;;;;;;;;;5.36;80.59;99568.41;5095784;28;19924;-68
2024/03/06 05:33:05;;;;;;;;;;;;;;;5.38;80.98;99572.69;5097108;28;19924;-68
2024/03/06 05:35:51;;;;;;;;;;;;;;;5.37;80.67;99573.50;5095318;28;20295;-68
2024/03/06 05:38:36;;;;;;;;;;;;;;;5.40;80.97;99576.09;5097348;28;19947;-68
2024/03/06 05:41:24;;;;;;;;;;;;;;;5.39;81.42;99579.47;5096467;28;20389;-69
2024/03/06 05:44:10;;;;;;;;;;;;;;;5.44;80.76;99577.00;5096569;28;19947;-68
2024/03/06 05:46:56;;;;;;;;;;;;;;;5.49;81.50;99575.41;5096686;28;19925;-69
2024/03/06 05:49:41;;;;;;;;;;;;;;;5.57;81.21;99573.00;5096628;28;19928;-69
2024/03/06 05:52:27;;;;;;;;;;;;;;;5.58;81.19;99575.56;5095316;28;19924;-69
2024/03/06 05:55:13;;;;;;;;;;;;;;;5.57;81.28;99576.38;5096328;28;19924;-69
2024/03/06 05:58:00;;;;;;;;;;;;;;;5.61;80.93;99574.78;5096414;28;19924;-69
2024/03/06 06:00:46;;;;;;;;;;;;;;;5.57;81.14;99583.13;5095407;28;19924;-68
2024/03/06 06:03:14;;;;;;;;;;;;;;;5.58;81.32;99582.31;5096518;28;19924;-69
2024/03/06 06:05:43;;;;;;;;;;;;;;;5.57;81.04;99589.03;5096115;28;19924;-69
2024/03/06 06:08:11;;;;;;;;;;;;;;;5.59;81.25;99586.56;5096346;28;19924;-69
2024/03/06 06:10:40;;;;;;;;;;;;;;;5.66;81.29;99589.22;5096002;28;20382;-69
2024/03/06 06:13:09;;;;;;;;;;;;;;;5.68;81.34;99586.69;5096313;28;19987;-69
2024/03/06 06:15:38;;;;;;;;;;;;;;;5.68;80.68;99591.78;5095915;28;19924;-69
2024/03/06 06:18:07;;;;;;;;;;;;;;;5.68;81.03;99586.69;5094417;28;19928;-69
2024/03/06 06:20:36;;;;;;;;;;;;;;;5.67;81.08;99590.91;5095918;28;19977;-69
2024/03/06 06:23:04;;;;;;;;;;;;;;;5.74;80.67;99591.84;5094718;28;19924;-69
2024/03/06 06:25:33;;;;;;;;;;;;;;;5.80;81.01;99600.44;5095431;28;19924;-69
2024/03/06 06:28:01;;;;;;;;;;;;;;;5.82;80.71;99598.78;5095864;28;19969;-69
2024/03/06 06:30:32;;;;;;;;;;;;;;;5.86;80.47;99597.16;5094446;28;19924;-69
2024/03/06 06:33:00;;;;;;;;;;;;;;;5.90;80.99;99604.00;5095810;28;19986;-69
2024/03/06 06:35:29;;;;;;;;;;;;;;;5.97;80.57;99605.81;5095615;28;19931;-69
2024/03/06 06:37:57;;;;;;;;;;;;;;;5.99;80.47;99604.16;5095638;28;19977;-69
2024/03/06 06:40:27;;;;;;;;;;;;;;;6.09;80.59;99598.41;5095534;28;20320;-69
2024/03/06 06:42:56;;;;;;;;;;;;;;;6.27;80.10;99601.19;5095082;28;19924;-69
2024/03/06 06:45:24;;;;;;;;;;;;;;;6.42;80.59;99616.66;5094136;28;19925;-69
2024/03/06 06:47:54;;;;;;;;;;;;;;;6.61;79.78;99622.81;5094178;28;19924;-68
2024/03/06 06:50:25;;;;;;;;;;;;;;;6.70;79.64;99621.25;5095393;28;19962;-69
2024/03/06 06:52:54;;;;;;;;;;;;;;;6.79;79.46;99617.16;5095404;28;20320;-69
2024/03/06 06:55:24;;;;;;;;;;;;;;;6.85;78.38;99613.00;5095253;28;19924;-68
2024/03/06 06:57:53;;;;;;;;;;;;;;;6.89;78.02;99613.88;5094884;28;19931;-68
2024/03/06 07:00:22;;;;;;;;;;;;;;;6.91;78.38;99607.16;5093932;28;19930;-68
2024/03/06 07:02:51;;;;;;;;;;;;;;;7.08;78.05;99618.38;5095144;28;20022;-68
2024/03/06 07:05:21;;;;;;;;;;;;;;;7.29;77.68;99613.56;5093208;28;19931;-68
2024/03/06 07:07:50;;;;;;;;;;;;;;;7.50;77.41;99616.31;5095379;28;19924;-68
2024/03/06 07:10:22;;;;;;;;;;;;;;;7.62;76.94;99608.81;5093742;28;19924;-69
2024/03/06 07:12:50;;;;;;;;;;;;;;;7.75;76.51;99612.34;5093747;28;19924;-69
2024/03/06 07:15:19;;;;;;;;;;;;;;;7.79;75.65;99614.91;5094857;28;19946;-69
2024/03/06 07:17:48;;;;;;;;;;;;;;;7.76;75.58;99612.34;5093329;28;19931;-68
2024/03/06 07:20:17;;;;;;;;;;;;;;;7.83;74.78;99606.47;5094795;28;19932;-68
2024/03/06 07:22:47;;;;;;;;;;;;;;;7.95;74.41;99605.72;5094677;28;19967;-68
2024/03/06 07:25:15;;;;;;;;;;;;;;;8.11;74.46;99608.41;5094507;28;19928;-69
2024/03/06 07:27:44;;;;;;;;;;;;;;;8.25;74.40;99610.22;5094400;28;20325;-69
2024/03/06 07:30:13;;;;;;;;;;;;;;;8.41;74.25;99606.97;5094701;28;19931;-68
2024/03/06 07:32:42;;;;;;;;;;;;;;;8.59;73.96;99602.84;5093213;28;19931;-68
2024/03/06 07:35:12;;;;;;;;;;;;;;;8.85;73.53;99613.16;5093526;28;19924;-68
2024/03/06 07:37:41;;;;;;;;;;;;;;;9.09;72.59;99604.78;5094814;28;19955;-69
2024/03/06 07:40:11;;;;;;;;;;;;;;;9.33;72.07;99607.41;5094244;28;19924;-69
2024/03/06 07:42:40;;;;;;;;;;;;;;;9.55;71.67;99595.59;5094309;28;19930;-69
2024/03/06 07:45:09;;;;;;;;;;;;;;;9.75;70.50;99599.00;5094392;28;19954;-70
2024/03/06 07:47:38;;;;;;;;;;;;;;;9.83;69.94;99592.22;5093182;28;20362;-70
2024/03/06 07:50:07;;;;;;;;;;;;;;;9.85;69.64;99600.72;5094638;28;20285;-70
2024/03/06 07:52:36;;;;;;;;;;;;;;;9.76;69.20;99598.16;5094618;28;19931;-69
2024/03/06 07:55:06;;;;;;;;;;;;;;;9.94;68.92;99605.81;5094354;28;19924;-69
2024/03/06 07:57:36;;;;;;;;;;;;;;;9.98;69.22;99604.97;5092904;28;19928;-69
2024/03/06 08:00:08;;;;;;;;;;;;;;;9.97;68.78;99600.72;5094142;28;19928;-69
2024/03/06 08:02:42;;;;;;;;;;;;;;;10.00;68.09;99601.59;5094329;28;19969;-69
2024/03/06 08:05:12;;;;;;;;;;;;;;;10.17;68.25;99601.63;5094362;28;19931;-69
2024/03/06 08:07:41;;;;;;;;;;;;;;;10.16;67.57;99602.44;5094245;28;20010;-69
2024/03/06 08:10:13;;;;;;;;;;;;;;;10.17;67.65;99603.31;5094211;28;19924;-69
2024/03/06 08:12:43;;;;;;;;;;;;;;;10.15;67.94;99600.75;5094279;28;19924;-70
2024/03/06 08:15:13;;;;;;;;;;;;;;;10.19;67.48;99596.50;5094310;28;19947;-70
2024/03/06 08:17:42;;;;;;;;;;;;;;;10.08;66.69;99602.41;5093817;28;19924;-70
2024/03/06 08:20:11;;;;;;;;;;;;;;;10.06;66.07;99595.63;5093750;28;19931;-70
2024/03/06 08:22:41;;;;;;;;;;;;;;;10.06;66.47;99603.25;5092842;28;19931;-69
2024/03/06 08:25:10;;;;;;;;;;;;;;;10.00;66.15;99600.72;5095480;28;20437;-69
2024/03/06 08:27:40;;;;;;;;;;;;;;;10.04;66.42;99610.06;5098037;28;19974;-71
2024/03/06 08:30:11;;;;;;;;;;;;;;;9.97;65.74;99613.47;5096849;28;19977;-69
2024/03/06 08:32:39;;;;;;;;;;;;;;;9.95;65.79;99607.53;5098011;28;19924;-69
2024/03/06 08:35:11;;;;;;;;;;;;;;;9.93;65.50;99609.22;5096657;28;19930;-70
2024/03/06 08:37:41;;;;;;;;;;;;;;;9.93;65.19;99610.06;5096533;28;19970;-70
2024/03/06 08:40:14;;;;;;;;;;;;;;;10.00;64.53;99611.78;5097202;28;19924;-68
2024/03/06 08:42:43;;;;;;;;;;;;;;;10.08;64.69;99611.75;5097639;28;19931;-68
2024/03/06 08:45:14;;;;;;;;;;;;;;;10.37;64.15;99612.63;5096410;28;19924;-68
2024/03/06 08:47:44;;;;;;;;;;;;;;;10.73;63.36;99615.13;5098045;28;20358;-68
2024/03/06 08:50:13;;;;;;;;;;;;;;;11.04;62.08;99609.91;5097583;28;20294;-69
2024/03/06 08:52:42;;;;;;;;;;;;;;;11.24;61.18;99605.56;5079109;28;19974;-69
2024/03/06 08:55:09;;;;;;;;;;;;;;;11.39;60.05;99611.47;5097140;28;19930;-67
2024/03/06 08:57:38;;;;;;;;;;;;;;;11.44;59.39;99612.28;5095609;28;19930;-70
2024/03/06 09:00:10;;;;;;;;;;;;;;;11.38;58.63;99614.88;5097394;28;19928;-69
2024/03/06 09:02:41;;;;;;;;;;;;;;;11.28;58.29;99618.31;5097403;28;20378;-68
2024/03/06 09:05:12;;;;;;;;;;;;;;;11.33;58.24;99615.75;5097031;28;20275;-68
2024/03/06 09:07:42;;;;;;;;;;;;;;;11.53;58.48;99619.06;5096184;28;19924;-69
2024/03/06 09:10:11;;;;;;;;;;;;;;;11.66;57.27;99610.44;5097006;28;20357;-69
2024/03/06 09:12:39;;;;;;;;;;;;;;;11.53;56.88;99618.19;5097381;28;19923;-69
2024/03/06 09:15:08;;;;;;;;;;;;;;;11.48;56.68;99615.69;5096899;28;19931;-67
2024/03/06 09:17:37;;;;;;;;;;;;;;;11.44;56.30;99619.13;5096991;28;20370;-68
2024/03/06 09:20:10;;;;;;;;;;;;;;;11.36;56.64;99620.84;5095828;28;20023;-68
2024/03/06 09:22:41;;;;;;;;;;;;;;;11.46;56.57;99617.41;5097116;28;19924;-68
2024/03/06 09:25:12;;;;;;;;;;;;;;;11.49;56.51;99616.53;5095565;28;19943;-68
2024/03/06 09:27:41;;;;;;;;;;;;;;;11.57;56.22;99622.44;5095783;28;20374;-68
2024/03/06 09:30:10;;;;;;;;;;;;;;;11.61;56.00;99612.22;5096959;28;20056;-68
2024/03/06 09:32:38;;;;;;;;;;;;;;;11.49;55.53;99613.97;5096585;28;19933;-69
2024/03/06 09:35:09;;;;;;;;;;;;;;;11.46;55.49;99617.41;5077581;28;19928;-68
2024/03/06 09:37:37;;;;;;;;;;;;;;;11.56;56.00;99616.50;5096689;28;19928;-68
2024/03/06 09:40:07;;;;;;;;;;;;;;;11.64;56.14;99614.72;5096655;28;19967;-69
2024/03/06 09:42:36;;;;;;;;;;;;;;;11.59;56.49;99608.78;5097111;28;19978;-68
2024/03/06 09:45:05;;;;;;;;;;;;;;;11.58;56.24;99612.22;5096265;28;20032;-68
2024/03/06 09:47:37;;;;;;;;;;;;;;;11.59;56.37;99624.13;5096642;28;19924;-69
2024/03/06 09:50:09;;;;;;;;;;;;;;;11.70;55.79;99617.28;5096564;28;20019;-69
2024/03/06 09:52:43;;;;;;;;;;;;;;;11.76;55.64;99619.78;5096139;28;19942;-68
2024/03/06 09:55:12;;;;;;;;;;;;;;;11.72;55.34;99619.81;5095098;28;20281;-68
2024/03/06 09:57:41;;;;;;;;;;;;;;;11.80;55.42;99608.69;5095975;28;19946;-68
2024/03/06 10:00:11;;;;;;;;;;;;;;;11.82;55.04;99613.78;5078297;28;20396;-68
2024/03/06 10:02:47;;;;;;;;;;;;;;;11.85;55.22;99622.28;5095093;28;19989;-68
2024/03/06 10:05:22;;;;;;;;;;;;;;;11.78;54.73;99619.81;5096230;28;20396;-68
2024/03/06 10:07:53;;;;;;;;;;;;;;;11.87;55.15;99620.59;5096258;28;19932;-68
2024/03/06 10:10:22;;;;;;;;;;;;;;;11.98;55.26;99623.91;5095779;28;19924;-68
2024/03/06 10:12:51;;;;;;;;;;;;;;;12.04;55.21;99618.72;5095758;28;19977;-68
2024/03/06 10:15:21;;;;;;;;;;;;;;;12.02;55.36;99623.00;5095533;28;19924;-68
2024/03/06 10:17:50;;;;;;;;;;;;;;;11.90;55.46;99620.53;5095925;28;19934;-68
2024/03/06 10:20:20;;;;;;;;;;;;;;;12.04;55.40;99618.72;5095928;28;19931;-68
2024/03/06 10:22:50;;;;;;;;;;;;;;;12.04;54.75;99617.91;5094636;28;20015;-68
2024/03/06 10:25:25;;;;;;;;;;;;;;;11.99;55.10;99623.06;5095594;28;19924;-67
2024/03/06 10:28:13;;;;;;;;;;;;;;;12.10;55.11;99623.81;5095424;28;20271;-69
2024/03/06 10:30:43;;;;;;;;;;;;;;;12.28;54.95;99621.97;5095469;28;19924;-68
2024/03/06 10:33:13;;;;;;;;;;;;;;;12.44;54.89;99615.84;5077566;28;20397;-69
2024/03/06 10:35:42;;;;;;;;;;;;;;;12.48;54.38;99614.94;5095309;28;19977;-68
2024/03/06 10:38:12;;;;;;;;;;;;;;;12.64;54.72;99611.38;5092882;28;19990;-67
2024/03/06 10:40:42;;;;;;;;;;;;;;;12.79;54.57;99611.19;5093837;28;20423;-68
2024/03/06 10:43:11;;;;;;;;;;;;;;;12.96;54.18;99619.56;5094194;28;19930;-68
2024/03/06 10:45:43;;;;;;;;;;;;;;;12.95;53.63;99607.63;5094801;28;19924;-67
2024/03/06 10:48:14;;;;;;;;;;;;;;;13.01;52.91;99604.97;5093785;28;20027;-67
2024/03/06 10:50:44;;;;;;;;;;;;;;;12.96;52.19;99604.19;5093627;28;19924;-67
2024/03/06 10:53:13;;;;;;;;;;;;;;;12.85;52.13;99611.16;5094960;28;20267;-67
2024/03/06 10:55:50;;;;;;;;;;;;;;;13.03;52.38;99605.81;5093856;28;19935;-67
2024/03/06 10:58:20;;;;;;;;;;;;;;;13.14;52.33;99604.00;5076709;28;20365;-68
2024/03/06 11:00:49;;;;;;;;;;;;;;;13.25;51.31;99602.16;5094916;28;20022;-69
2024/03/06 11:03:18;;;;;;;;;;;;;;;13.32;50.64;99603.78;5093849;28;19924;-67
2024/03/06 11:05:47;;;;;;;;;;;;;;;13.27;50.16;99605.53;5095112;28;19986;-68
2024/03/06 11:08:17;;;;;;;;;;;;;;;13.13;49.95;99597.19;5094643;28;19924;-68
2024/03/06 11:10:46;;;;;;;;;;;;;;;13.09;50.37;99587.84;5094729;28;20378;-68
2024/03/06 11:13:34;;;;;;;;;;;;;;;13.25;50.47;99584.22;5094984;28;19968;-67
2024/03/06 11:16:05;;;;;;;;;;;;;;;13.28;49.46;99585.88;5094569;28;19924;-67
2024/03/06 11:18:52;;;;;;;;;;;;;;;13.20;49.43;99580.00;5093929;28;19928;-67
2024/03/06 11:21:39;;;;;;;;;;;;;;;13.17;49.10;99577.50;5094840;28;19990;-68
2024/03/06 11:24:13;;;;;;;;;;;;;;;13.32;49.12;99573.00;5093866;28;19924;-67
2024/03/06 11:26:44;;;;;;;;;;;;;;;13.70;48.89;99576.75;5094489;28;19924;-67
2024/03/06 11:29:12;;;;;;;;;;;;;;;13.90;48.29;99567.03;5095195;28;19924;-69
2024/03/06 11:31:56;;;;;;;;;;;;;;;14.14;47.54;99561.47;5094101;28;20019;-68
2024/03/06 11:34:25;;;;;;;;;;;;;;;14.23;46.85;99563.06;5093616;28;19924;-66
2024/03/06 11:36:54;;;;;;;;;;;;;;;14.23;46.05;99555.38;5094562;28;19928;-66
2024/03/06 11:39:23;;;;;;;;;;;;;;;14.11;45.81;99554.69;5111063;28;19923;-66
2024/03/06 11:41:51;;;;;;;;;;;;;;;14.13;46.10;99553.81;5113426;28;19924;-67
2024/03/06 11:44:22;;;;;;;;;;;;;;;13.93;45.51;99556.72;5114537;28;19930;-67
2024/03/06 11:47:00;;;;;;;;;;;;;;;13.84;45.40;99552.59;5114722;28;19931;-67
2024/03/06 11:49:31;;;;;;;;;;;;;;;14.06;44.88;99547.91;5114918;28;20399;-67
2024/03/06 11:52:02;;;;;;;;;;;;;;;14.50;45.58;99539.47;5114396;28;20022;-67
2024/03/06 11:54:31;;;;;;;;;;;;;;;14.84;44.69;99542.22;5115051;28;19924;-67
2024/03/06 11:57:00;;;;;;;;;;;;;;;14.49;43.35;99538.63;5114683;28;19934;-66
2024/03/06 11:59:29;;;;;;;;;;;;;;;14.43;43.25;99533.59;5113554;28;20385;-66
2024/03/06 12:02:01;;;;;;;;;;;;;;;14.37;43.51;99535.44;5114354;28;20392;-66
2024/03/06 12:04:33;;;;;;;;;;;;;;;14.68;43.77;99537.38;5114611;28;19927;-67
2024/03/06 12:07:05;;;;;;;;;;;;;;;14.63;44.05;99522.97;5096568;28;20022;-66
2024/03/06 12:09:35;;;;;;;;;;;;;;;14.80;43.99;99527.75;5114625;28;19985;-67
2024/03/06 12:12:10;;;;;;;;;;;;;;;15.14;44.07;99519.28;5114655;28;19935;-67
2024/03/06 12:14:40;;;;;;;;;;;;;;;15.42;43.77;99514.41;5114865;28;19931;-67
2024/03/06 12:17:15;;;;;;;;;;;;;;;15.66;43.10;99523.31;5113196;28;20171;-67
2024/03/06 12:19:45;;;;;;;;;;;;;;;15.29;41.76;99513.81;5114864;28;19953;-67
2024/03/06 12:22:15;;;;;;;;;;;;;;;15.38;42.60;99517.91;5112744;28;20369;-67
2024/03/06 12:24:44;;;;;;;;;;;;;;;15.40;41.73;99516.16;5114465;28;19924;-67
2024/03/06 12:27:14;;;;;;;;;;;;;;;15.41;41.85;99513.56;5114303;28;20397;-67
2024/03/06 12:29:42;;;;;;;;;;;;;;;15.45;40.70;99511.81;5114313;28;19993;-66
2024/03/06 12:32:20;;;;;;;;;;;;;;;15.22;40.68;99506.28;5112945;28;19963;-66
2024/03/06 12:35:07;;;;;;;;;;;;;;;15.11;40.58;99506.53;5112878;28;20018;-67
2024/03/06 12:37:36;;;;;;;;;;;;;;;15.02;39.97;99500.75;5112710;28;19989;-67
2024/03/06 12:40:05;;;;;;;;;;;;;;;15.00;40.31;99495.63;5114222;28;20020;-67
2024/03/06 12:42:34;;;;;;;;;;;;;;;15.25;40.67;99496.78;5114657;28;19923;-68
2024/03/06 12:45:03;;;;;;;;;;;;;;;15.29;39.79;99492.41;5114134;28;19924;-67
2024/03/06 12:47:33;;;;;;;;;;;;;;;15.56;40.38;99491.81;5113038;28;19923;-67
2024/03/06 12:50:02;;;;;;;;;;;;;;;15.43;39.83;99492.94;5114228;28;19924;-66
2024/03/06 12:52:30;;;;;;;;;;;;;;;15.46;40.28;99494.63;5114071;28;19927;-67
2024/03/06 12:54:59;;;;;;;;;;;;;;;15.34;39.76;99490.56;5114264;28;19931;-67
2024/03/06 12:57:28;;;;;;;;;;;;;;;15.47;41.43;99489.47;5113783;28;19924;-67
2024/03/06 12:59:57;;;;;;;;;;;;;;;15.77;41.05;99486.13;5113879;28;19924;-66
2024/03/06 13:02:25;;;;;;;;;;;;;;;15.91;40.78;99489.19;5114150;28;19963;-66
2024/03/06 13:04:55;;;;;;;;;;;;;;;16.16;41.38;99486.00;5114143;28;19931;-67
2024/03/06 13:07:27;;;;;;;;;;;;;;;16.07;40.09;99490.53;5114111;28;19931;-67
2024/03/06 13:09:55;;;;;;;;;;;;;;;16.09;39.61;99477.59;5113526;28;19924;-67
2024/03/06 13:12:23;;;;;;;;;;;;;;;15.96;39.36;99482.22;5117686;28;20274;-67